sensor_id;sensor_type;location;lat;lon;timestamp;P1;durP1;ratioP1;P2;durP2;ratioP2
23543;SDS011;11950;51.230;4.012;2023-05-24T00:01:40;6.90;;;1.50;;
23543;SDS011;11950;51.230;4.012;2023-05-24T00:04:07;7.18;;;1.40;;
23543;SDS011;11950;51.230;4.012;2023-05-24T00:06:33;8.60;;;1.75;;
23543;SDS011;11950;51.230;4.012;2023-05-24T00:09:04;8.52;;;1.52;;
23543;SDS011;11950;51.230;4.012;2023-05-24T00:11:31;7.40;;;1.60;;
23543;SDS011;11950;51.230;4.012;2023-05-24T00:13:57;8.45;;;1.80;;
23543;SDS011;11950;51.230;4.012;2023-05-24T00:16:23;7.28;;;1.70;;
23543;SDS011;11950;51.230;4.012;2023-05-24T00:18:50;8.93;;;1.85;;
23543;SDS011;11950;51.230;4.012;2023-05-24T00:21:16;7.32;;;1.50;;
23543;SDS011;11950;51.230;4.012;2023-05-24T00:23:43;5.50;;;1.63;;
23543;SDS011;11950;51.230;4.012;2023-05-24T00:26:10;6.32;;;1.92;;
23543;SDS011;11950;51.230;4.012;2023-05-24T00:28:39;9.32;;;1.88;;
23543;SDS011;11950;51.230;4.012;2023-05-24T00:31:05;6.57;;;1.75;;
23543;SDS011;11950;51.230;4.012;2023-05-24T00:33:33;5.65;;;1.67;;
23543;SDS011;11950;51.230;4.012;2023-05-24T00:35:59;7.35;;;1.70;;
23543;SDS011;11950;51.230;4.012;2023-05-24T00:38:25;7.05;;;1.67;;
23543;SDS011;11950;51.230;4.012;2023-05-24T00:40:52;6.55;;;1.77;;
23543;SDS011;11950;51.230;4.012;2023-05-24T00:43:21;8.18;;;1.73;;
23543;SDS011;11950;51.230;4.012;2023-05-24T00:45:49;8.43;;;1.90;;
23543;SDS011;11950;51.230;4.012;2023-05-24T00:50:55;5.30;;;1.70;;
23543;SDS011;11950;51.230;4.012;2023-05-24T00:53:21;11.48;;;2.00;;
23543;SDS011;11950;51.230;4.012;2023-05-24T00:55:48;5.40;;;1.70;;
23543;SDS011;11950;51.230;4.012;2023-05-24T00:58:14;8.38;;;1.83;;
23543;SDS011;11950;51.230;4.012;2023-05-24T01:00:41;6.07;;;1.73;;
23543;SDS011;11950;51.230;4.012;2023-05-24T01:03:08;7.15;;;1.50;;
23543;SDS011;11950;51.230;4.012;2023-05-24T01:05:35;6.45;;;1.80;;
23543;SDS011;11950;51.230;4.012;2023-05-24T01:08:09;5.65;;;1.80;;
23543;SDS011;11950;51.230;4.012;2023-05-24T01:11:00;10.02;;;1.73;;
23543;SDS011;11950;51.230;4.012;2023-05-24T01:13:42;10.15;;;2.05;;
23543;SDS011;11950;51.230;4.012;2023-05-24T01:16:25;6.18;;;1.52;;
23543;SDS011;11950;51.230;4.012;2023-05-24T01:18:59;5.00;;;1.90;;
23543;SDS011;11950;51.230;4.012;2023-05-24T01:24:35;5.50;;;1.80;;
23543;SDS011;11950;51.230;4.012;2023-05-24T01:27:13;10.18;;;1.88;;
23543;SDS011;11950;51.230;4.012;2023-05-24T01:29:42;7.85;;;1.88;;
23543;SDS011;11950;51.230;4.012;2023-05-24T01:32:09;7.90;;;1.85;;
23543;SDS011;11950;51.230;4.012;2023-05-24T01:34:35;8.25;;;2.17;;
23543;SDS011;11950;51.230;4.012;2023-05-24T01:37:01;5.70;;;1.70;;
23543;SDS011;11950;51.230;4.012;2023-05-24T01:39:28;7.78;;;1.48;;
23543;SDS011;11950;51.230;4.012;2023-05-24T01:44:42;9.00;;;2.20;;
23543;SDS011;11950;51.230;4.012;2023-05-24T01:47:37;5.75;;;1.65;;
23543;SDS011;11950;51.230;4.012;2023-05-24T01:50:16;5.13;;;1.60;;
23543;SDS011;11950;51.230;4.012;2023-05-24T01:52:47;5.40;;;1.45;;
23543;SDS011;11950;51.230;4.012;2023-05-24T01:55:16;5.65;;;1.65;;
23543;SDS011;11950;51.230;4.012;2023-05-24T01:57:43;7.82;;;2.10;;
23543;SDS011;11950;51.230;4.012;2023-05-24T02:00:13;4.80;;;1.77;;
23543;SDS011;11950;51.230;4.012;2023-05-24T02:02:41;6.68;;;1.92;;
23543;SDS011;11950;51.230;4.012;2023-05-24T02:05:08;10.48;;;2.00;;
23543;SDS011;11950;51.230;4.012;2023-05-24T02:07:35;4.78;;;1.70;;
23543;SDS011;11950;51.230;4.012;2023-05-24T02:10:01;6.22;;;2.38;;
23543;SDS011;11950;51.230;4.012;2023-05-24T02:12:28;8.18;;;1.85;;
23543;SDS011;11950;51.230;4.012;2023-05-24T02:14:55;11.30;;;1.90;;
23543;SDS011;11950;51.230;4.012;2023-05-24T02:17:21;5.07;;;1.73;;
23543;SDS011;11950;51.230;4.012;2023-05-24T02:19:50;7.38;;;1.85;;
23543;SDS011;11950;51.230;4.012;2023-05-24T02:22:16;10.20;;;1.73;;
23543;SDS011;11950;51.230;4.012;2023-05-24T02:24:43;13.65;;;2.20;;
23543;SDS011;11950;51.230;4.012;2023-05-24T02:27:09;8.30;;;2.15;;
23543;SDS011;11950;51.230;4.012;2023-05-24T02:29:35;6.43;;;1.83;;
23543;SDS011;11950;51.230;4.012;2023-05-24T02:32:02;7.78;;;1.85;;
23543;SDS011;11950;51.230;4.012;2023-05-24T02:34:28;9.20;;;2.15;;
23543;SDS011;11950;51.230;4.012;2023-05-24T02:36:55;7.75;;;2.00;;
23543;SDS011;11950;51.230;4.012;2023-05-24T02:39:21;9.35;;;2.08;;
23543;SDS011;11950;51.230;4.012;2023-05-24T02:41:47;7.20;;;2.13;;
23543;SDS011;11950;51.230;4.012;2023-05-24T02:44:13;5.72;;;1.75;;
23543;SDS011;11950;51.230;4.012;2023-05-24T02:46:40;6.15;;;2.00;;
23543;SDS011;11950;51.230;4.012;2023-05-24T02:49:06;6.18;;;2.10;;
23543;SDS011;11950;51.230;4.012;2023-05-24T02:51:32;9.20;;;2.22;;
23543;SDS011;11950;51.230;4.012;2023-05-24T02:53:59;6.07;;;1.90;;
23543;SDS011;11950;51.230;4.012;2023-05-24T02:56:28;4.72;;;1.90;;
23543;SDS011;11950;51.230;4.012;2023-05-24T02:58:54;5.93;;;2.17;;
23543;SDS011;11950;51.230;4.012;2023-05-24T03:01:21;5.35;;;2.13;;
23543;SDS011;11950;51.230;4.012;2023-05-24T03:03:50;12.32;;;2.63;;
23543;SDS011;11950;51.230;4.012;2023-05-24T03:06:16;7.90;;;2.00;;
23543;SDS011;11950;51.230;4.012;2023-05-24T03:08:44;7.60;;;2.00;;
23543;SDS011;11950;51.230;4.012;2023-05-24T03:11:12;7.13;;;2.50;;
23543;SDS011;11950;51.230;4.012;2023-05-24T03:13:40;5.10;;;2.20;;
23543;SDS011;11950;51.230;4.012;2023-05-24T03:16:07;4.53;;;1.80;;
23543;SDS011;11950;51.230;4.012;2023-05-24T03:18:33;6.50;;;2.10;;
23543;SDS011;11950;51.230;4.012;2023-05-24T03:21:00;8.60;;;2.55;;
23543;SDS011;11950;51.230;4.012;2023-05-24T03:23:26;6.82;;;1.88;;
23543;SDS011;11950;51.230;4.012;2023-05-24T03:25:53;8.27;;;2.08;;
23543;SDS011;11950;51.230;4.012;2023-05-24T03:28:19;5.75;;;1.70;;
23543;SDS011;11950;51.230;4.012;2023-05-24T03:30:47;6.28;;;2.20;;
23543;SDS011;11950;51.230;4.012;2023-05-24T03:33:14;9.48;;;2.60;;
23543;SDS011;11950;51.230;4.012;2023-05-24T03:35:40;8.00;;;1.92;;
23543;SDS011;11950;51.230;4.012;2023-05-24T03:38:07;8.73;;;2.33;;
23543;SDS011;11950;51.230;4.012;2023-05-24T03:40:37;6.43;;;2.15;;
23543;SDS011;11950;51.230;4.012;2023-05-24T03:43:06;6.30;;;2.22;;
23543;SDS011;11950;51.230;4.012;2023-05-24T03:45:42;8.02;;;1.92;;
23543;SDS011;11950;51.230;4.012;2023-05-24T03:48:08;9.73;;;2.45;;
23543;SDS011;11950;51.230;4.012;2023-05-24T03:50:34;6.82;;;2.42;;
23543;SDS011;11950;51.230;4.012;2023-05-24T03:53:00;10.48;;;2.58;;
23543;SDS011;11950;51.230;4.012;2023-05-24T03:55:27;7.43;;;2.75;;
23543;SDS011;11950;51.230;4.012;2023-05-24T03:57:53;4.05;;;2.47;;
23543;SDS011;11950;51.230;4.012;2023-05-24T04:00:19;8.65;;;2.97;;
23543;SDS011;11950;51.230;4.012;2023-05-24T04:02:48;9.32;;;2.92;;
23543;SDS011;11950;51.230;4.012;2023-05-24T04:05:14;6.20;;;2.17;;
23543;SDS011;11950;51.230;4.012;2023-05-24T04:07:40;9.35;;;2.45;;
23543;SDS011;11950;51.230;4.012;2023-05-24T04:10:08;11.05;;;2.47;;
23543;SDS011;11950;51.230;4.012;2023-05-24T04:12:35;10.25;;;2.40;;
23543;SDS011;11950;51.230;4.012;2023-05-24T04:15:01;7.78;;;2.03;;
23543;SDS011;11950;51.230;4.012;2023-05-24T04:17:28;7.50;;;2.30;;
23543;SDS011;11950;51.230;4.012;2023-05-24T04:19:59;8.38;;;2.33;;
23543;SDS011;11950;51.230;4.012;2023-05-24T04:22:27;9.68;;;2.60;;
23543;SDS011;11950;51.230;4.012;2023-05-24T04:24:54;8.20;;;1.90;;
23543;SDS011;11950;51.230;4.012;2023-05-24T04:27:21;7.32;;;2.25;;
23543;SDS011;11950;51.230;4.012;2023-05-24T04:29:50;4.03;;;2.00;;
23543;SDS011;11950;51.230;4.012;2023-05-24T04:32:17;9.32;;;2.00;;
23543;SDS011;11950;51.230;4.012;2023-05-24T04:34:44;9.07;;;2.85;;
23543;SDS011;11950;51.230;4.012;2023-05-24T04:37:11;7.47;;;2.35;;
23543;SDS011;11950;51.230;4.012;2023-05-24T04:39:44;6.72;;;1.95;;
23543;SDS011;11950;51.230;4.012;2023-05-24T04:42:10;5.22;;;2.35;;
23543;SDS011;11950;51.230;4.012;2023-05-24T04:44:40;9.20;;;2.15;;
23543;SDS011;11950;51.230;4.012;2023-05-24T04:47:07;7.55;;;2.80;;
23543;SDS011;11950;51.230;4.012;2023-05-24T04:49:34;6.85;;;2.17;;
23543;SDS011;11950;51.230;4.012;2023-05-24T04:52:00;7.85;;;2.17;;
23543;SDS011;11950;51.230;4.012;2023-05-24T04:54:26;6.43;;;2.53;;
23543;SDS011;11950;51.230;4.012;2023-05-24T04:56:53;7.78;;;2.45;;
23543;SDS011;11950;51.230;4.012;2023-05-24T04:59:19;4.43;;;2.40;;
23543;SDS011;11950;51.230;4.012;2023-05-24T05:01:45;8.80;;;2.47;;
23543;SDS011;11950;51.230;4.012;2023-05-24T05:04:11;10.60;;;2.90;;
23543;SDS011;11950;51.230;4.012;2023-05-24T05:06:38;11.85;;;2.95;;
23543;SDS011;11950;51.230;4.012;2023-05-24T05:09:05;10.00;;;3.67;;
23543;SDS011;11950;51.230;4.012;2023-05-24T05:11:37;13.07;;;2.90;;
23543;SDS011;11950;51.230;4.012;2023-05-24T05:14:04;7.57;;;2.40;;
23543;SDS011;11950;51.230;4.012;2023-05-24T05:16:30;6.43;;;2.60;;
23543;SDS011;11950;51.230;4.012;2023-05-24T05:18:57;8.88;;;2.35;;
23543;SDS011;11950;51.230;4.012;2023-05-24T05:21:23;9.45;;;2.40;;
23543;SDS011;11950;51.230;4.012;2023-05-24T05:23:49;5.28;;;2.25;;
23543;SDS011;11950;51.230;4.012;2023-05-24T05:26:16;9.45;;;2.60;;
23543;SDS011;11950;51.230;4.012;2023-05-24T05:28:42;7.47;;;2.88;;
23543;SDS011;11950;51.230;4.012;2023-05-24T05:31:08;11.23;;;2.60;;
23543;SDS011;11950;51.230;4.012;2023-05-24T05:33:35;10.93;;;2.50;;
23543;SDS011;11950;51.230;4.012;2023-05-24T05:36:01;8.65;;;3.00;;
23543;SDS011;11950;51.230;4.012;2023-05-24T05:38:27;5.55;;;2.47;;
23543;SDS011;11950;51.230;4.012;2023-05-24T05:40:53;6.55;;;2.60;;
23543;SDS011;11950;51.230;4.012;2023-05-24T05:43:20;9.52;;;2.78;;
23543;SDS011;11950;51.230;4.012;2023-05-24T05:45:46;7.25;;;2.80;;
23543;SDS011;11950;51.230;4.012;2023-05-24T05:48:12;10.43;;;3.47;;
23543;SDS011;11950;51.230;4.012;2023-05-24T05:50:38;7.15;;;2.95;;
23543;SDS011;11950;51.230;4.012;2023-05-24T05:53:04;9.73;;;3.50;;
23543;SDS011;11950;51.230;4.012;2023-05-24T05:55:31;8.60;;;3.45;;
23543;SDS011;11950;51.230;4.012;2023-05-24T05:57:57;10.63;;;3.95;;
23543;SDS011;11950;51.230;4.012;2023-05-24T06:00:23;11.25;;;4.50;;
23543;SDS011;11950;51.230;4.012;2023-05-24T06:02:49;9.30;;;3.22;;
23543;SDS011;11950;51.230;4.012;2023-05-24T06:05:16;13.35;;;3.38;;
23543;SDS011;11950;51.230;4.012;2023-05-24T06:07:43;9.07;;;3.65;;
23543;SDS011;11950;51.230;4.012;2023-05-24T06:10:10;11.23;;;3.28;;
23543;SDS011;11950;51.230;4.012;2023-05-24T06:12:36;8.18;;;3.05;;
23543;SDS011;11950;51.230;4.012;2023-05-24T06:15:05;13.10;;;3.92;;
23543;SDS011;11950;51.230;4.012;2023-05-24T06:17:33;14.52;;;4.07;;
23543;SDS011;11950;51.230;4.012;2023-05-24T06:19:59;13.23;;;3.60;;
23543;SDS011;11950;51.230;4.012;2023-05-24T06:22:25;13.68;;;3.50;;
23543;SDS011;11950;51.230;4.012;2023-05-24T06:24:54;16.95;;;4.40;;
23543;SDS011;11950;51.230;4.012;2023-05-24T06:27:21;13.30;;;3.42;;
23543;SDS011;11950;51.230;4.012;2023-05-24T06:29:48;10.48;;;2.80;;
23543;SDS011;11950;51.230;4.012;2023-05-24T06:32:14;10.50;;;3.20;;
23543;SDS011;11950;51.230;4.012;2023-05-24T06:34:40;14.52;;;3.70;;
23543;SDS011;11950;51.230;4.012;2023-05-24T06:37:07;13.68;;;3.40;;
23543;SDS011;11950;51.230;4.012;2023-05-24T06:39:39;13.25;;;3.03;;
23543;SDS011;11950;51.230;4.012;2023-05-24T06:42:06;11.48;;;3.20;;
23543;SDS011;11950;51.230;4.012;2023-05-24T06:44:35;14.88;;;3.63;;
23543;SDS011;11950;51.230;4.012;2023-05-24T06:47:02;15.23;;;3.88;;
23543;SDS011;11950;51.230;4.012;2023-05-24T06:49:30;15.80;;;3.05;;
23543;SDS011;11950;51.230;4.012;2023-05-24T06:51:56;12.60;;;3.60;;
23543;SDS011;11950;51.230;4.012;2023-05-24T06:54:22;17.95;;;4.47;;
23543;SDS011;11950;51.230;4.012;2023-05-24T06:56:50;13.68;;;4.28;;
23543;SDS011;11950;51.230;4.012;2023-05-24T06:59:16;15.82;;;4.25;;
23543;SDS011;11950;51.230;4.012;2023-05-24T07:01:42;15.15;;;3.92;;
23543;SDS011;11950;51.230;4.012;2023-05-24T07:04:08;16.05;;;3.75;;
23543;SDS011;11950;51.230;4.012;2023-05-24T07:06:35;11.07;;;3.63;;
23543;SDS011;11950;51.230;4.012;2023-05-24T07:09:02;16.48;;;3.10;;
23543;SDS011;11950;51.230;4.012;2023-05-24T07:11:29;17.38;;;3.20;;
23543;SDS011;11950;51.230;4.012;2023-05-24T07:13:56;12.88;;;2.80;;
23543;SDS011;11950;51.230;4.012;2023-05-24T07:16:23;18.83;;;3.25;;
23543;SDS011;11950;51.230;4.012;2023-05-24T07:18:49;12.73;;;2.95;;
23543;SDS011;11950;51.230;4.012;2023-05-24T07:21:15;18.17;;;4.28;;
23543;SDS011;11950;51.230;4.012;2023-05-24T07:23:41;18.02;;;3.47;;
23543;SDS011;11950;51.230;4.012;2023-05-24T07:26:08;9.95;;;2.50;;
23543;SDS011;11950;51.230;4.012;2023-05-24T07:28:34;16.27;;;2.95;;
23543;SDS011;11950;51.230;4.012;2023-05-24T07:31:04;15.30;;;2.20;;
23543;SDS011;11950;51.230;4.012;2023-05-24T07:33:33;17.35;;;2.40;;
23543;SDS011;11950;51.230;4.012;2023-05-24T07:36:01;12.02;;;2.25;;
23543;SDS011;11950;51.230;4.012;2023-05-24T07:38:27;13.32;;;2.67;;
23543;SDS011;11950;51.230;4.012;2023-05-24T07:40:55;14.27;;;2.75;;
23543;SDS011;11950;51.230;4.012;2023-05-24T07:43:23;10.38;;;2.20;;
23543;SDS011;11950;51.230;4.012;2023-05-24T07:45:49;10.95;;;2.20;;
23543;SDS011;11950;51.230;4.012;2023-05-24T07:48:16;9.25;;;2.10;;
23543;SDS011;11950;51.230;4.012;2023-05-24T07:50:42;14.05;;;3.63;;
23543;SDS011;11950;51.230;4.012;2023-05-24T07:53:13;11.20;;;3.10;;
23543;SDS011;11950;51.230;4.012;2023-05-24T07:55:40;14.20;;;3.20;;
23543;SDS011;11950;51.230;4.012;2023-05-24T07:58:07;19.80;;;3.58;;
23543;SDS011;11950;51.230;4.012;2023-05-24T08:00:33;11.65;;;3.22;;
23543;SDS011;11950;51.230;4.012;2023-05-24T08:03:00;9.38;;;2.80;;
23543;SDS011;11950;51.230;4.012;2023-05-24T08:05:27;9.82;;;2.67;;
23543;SDS011;11950;51.230;4.012;2023-05-24T08:07:53;11.85;;;3.20;;
23543;SDS011;11950;51.230;4.012;2023-05-24T08:10:20;18.23;;;3.05;;
23543;SDS011;11950;51.230;4.012;2023-05-24T08:12:46;8.50;;;2.83;;
23543;SDS011;11950;51.230;4.012;2023-05-24T08:15:14;18.30;;;3.50;;
23543;SDS011;11950;51.230;4.012;2023-05-24T08:17:40;10.98;;;2.85;;
23543;SDS011;11950;51.230;4.012;2023-05-24T08:20:07;14.77;;;3.60;;
23543;SDS011;11950;51.230;4.012;2023-05-24T08:22:41;15.55;;;3.33;;
23543;SDS011;11950;51.230;4.012;2023-05-24T08:25:08;16.20;;;3.63;;
23543;SDS011;11950;51.230;4.012;2023-05-24T08:27:36;15.02;;;3.53;;
23543;SDS011;11950;51.230;4.012;2023-05-24T08:30:02;13.57;;;3.33;;
23543;SDS011;11950;51.230;4.012;2023-05-24T08:32:28;11.73;;;3.78;;
23543;SDS011;11950;51.230;4.012;2023-05-24T08:34:55;12.05;;;3.33;;
23543;SDS011;11950;51.230;4.012;2023-05-24T08:37:21;12.00;;;3.45;;
23543;SDS011;11950;51.230;4.012;2023-05-24T08:39:48;10.05;;;2.63;;
23543;SDS011;11950;51.230;4.012;2023-05-24T08:42:15;12.00;;;3.72;;
23543;SDS011;11950;51.230;4.012;2023-05-24T08:44:51;11.48;;;2.70;;
23543;SDS011;11950;51.230;4.012;2023-05-24T08:47:21;10.52;;;3.05;;
23543;SDS011;11950;51.230;4.012;2023-05-24T08:49:49;8.93;;;2.65;;
23543;SDS011;11950;51.230;4.012;2023-05-24T08:52:16;16.00;;;3.45;;
23543;SDS011;11950;51.230;4.012;2023-05-24T08:54:44;15.07;;;3.63;;
23543;SDS011;11950;51.230;4.012;2023-05-24T08:57:11;11.60;;;2.72;;
23543;SDS011;11950;51.230;4.012;2023-05-24T08:59:39;10.85;;;2.70;;
23543;SDS011;11950;51.230;4.012;2023-05-24T09:02:07;9.68;;;2.70;;
23543;SDS011;11950;51.230;4.012;2023-05-24T09:04:36;9.88;;;2.05;;
23543;SDS011;11950;51.230;4.012;2023-05-24T09:07:04;12.88;;;2.88;;
23543;SDS011;11950;51.230;4.012;2023-05-24T09:09:32;14.95;;;3.28;;
23543;SDS011;11950;51.230;4.012;2023-05-24T09:12:00;10.65;;;3.10;;
23543;SDS011;11950;51.230;4.012;2023-05-24T09:14:31;14.45;;;3.38;;
23543;SDS011;11950;51.230;4.012;2023-05-24T09:16:58;10.82;;;2.72;;
23543;SDS011;11950;51.230;4.012;2023-05-24T09:19:24;12.38;;;2.95;;
23543;SDS011;11950;51.230;4.012;2023-05-24T09:21:52;8.52;;;2.88;;
23543;SDS011;11950;51.230;4.012;2023-05-24T09:24:19;11.68;;;3.15;;
23543;SDS011;11950;51.230;4.012;2023-05-24T09:26:48;11.18;;;2.70;;
23543;SDS011;11950;51.230;4.012;2023-05-24T09:29:15;11.85;;;2.83;;
23543;SDS011;11950;51.230;4.012;2023-05-24T09:31:46;10.35;;;3.92;;
23543;SDS011;11950;51.230;4.012;2023-05-24T09:34:14;13.07;;;3.65;;
23543;SDS011;11950;51.230;4.012;2023-05-24T09:36:41;13.77;;;3.15;;
23543;SDS011;11950;51.230;4.012;2023-05-24T09:39:10;6.22;;;2.65;;
23543;SDS011;11950;51.230;4.012;2023-05-24T09:41:36;7.80;;;2.38;;
23543;SDS011;11950;51.230;4.012;2023-05-24T09:44:03;7.68;;;2.78;;
23543;SDS011;11950;51.230;4.012;2023-05-24T09:46:34;10.80;;;2.88;;
23543;SDS011;11950;51.230;4.012;2023-05-24T09:49:02;12.25;;;2.63;;
23543;SDS011;11950;51.230;4.012;2023-05-24T09:51:31;8.90;;;3.10;;
23543;SDS011;11950;51.230;4.012;2023-05-24T09:54:01;9.35;;;2.97;;
23543;SDS011;11950;51.230;4.012;2023-05-24T09:56:28;8.27;;;3.20;;
23543;SDS011;11950;51.230;4.012;2023-05-24T09:58:55;10.48;;;2.40;;
23543;SDS011;11950;51.230;4.012;2023-05-24T10:01:22;9.55;;;2.97;;
23543;SDS011;11950;51.230;4.012;2023-05-24T10:03:53;11.93;;;2.88;;
23543;SDS011;11950;51.230;4.012;2023-05-24T10:06:20;10.73;;;2.80;;
23543;SDS011;11950;51.230;4.012;2023-05-24T10:08:49;8.55;;;2.60;;
23543;SDS011;11950;51.230;4.012;2023-05-24T10:11:17;7.75;;;2.00;;
23543;SDS011;11950;51.230;4.012;2023-05-24T10:13:43;11.30;;;2.33;;
23543;SDS011;11950;51.230;4.012;2023-05-24T10:16:10;7.32;;;2.42;;
23543;SDS011;11950;51.230;4.012;2023-05-24T10:18:37;5.03;;;2.33;;
23543;SDS011;11950;51.230;4.012;2023-05-24T10:21:06;9.50;;;1.90;;
23543;SDS011;11950;51.230;4.012;2023-05-24T10:23:37;7.10;;;1.60;;
23543;SDS011;11950;51.230;4.012;2023-05-24T10:26:07;6.93;;;1.88;;
23543;SDS011;11950;51.230;4.012;2023-05-24T10:28:37;8.10;;;1.98;;
23543;SDS011;11950;51.230;4.012;2023-05-24T10:31:31;9.13;;;2.40;;
23543;SDS011;11950;51.230;4.012;2023-05-24T10:33:59;5.43;;;1.92;;
23543;SDS011;11950;51.230;4.012;2023-05-24T10:36:27;9.27;;;2.00;;
23543;SDS011;11950;51.230;4.012;2023-05-24T10:38:55;9.13;;;1.75;;
23543;SDS011;11950;51.230;4.012;2023-05-24T10:41:21;8.65;;;1.92;;
23543;SDS011;11950;51.230;4.012;2023-05-24T10:43:50;8.18;;;2.15;;
23543;SDS011;11950;51.230;4.012;2023-05-24T10:46:18;5.50;;;1.90;;
23543;SDS011;11950;51.230;4.012;2023-05-24T10:49:03;4.50;;;1.50;;
23543;SDS011;11950;51.230;4.012;2023-05-24T10:51:35;5.00;;;2.00;;
23543;SDS011;11950;51.230;4.012;2023-05-24T10:56:46;7.60;;;2.05;;
23543;SDS011;11950;51.230;4.012;2023-05-24T10:59:56;9.27;;;1.75;;
23543;SDS011;11950;51.230;4.012;2023-05-24T11:02:07;4.78;;;1.88;;
23543;SDS011;11950;51.230;4.012;2023-05-24T11:04:38;11.40;;;2.05;;
23543;SDS011;11950;51.230;4.012;2023-05-24T11:07:08;6.25;;;1.90;;
23543;SDS011;11950;51.230;4.012;2023-05-24T11:09:36;8.38;;;2.15;;
23543;SDS011;11950;51.230;4.012;2023-05-24T11:12:07;10.38;;;2.55;;
23543;SDS011;11950;51.230;4.012;2023-05-24T11:14:37;7.70;;;2.20;;
23543;SDS011;11950;51.230;4.012;2023-05-24T11:17:05;7.50;;;1.60;;
23543;SDS011;11950;51.230;4.012;2023-05-24T11:19:33;7.22;;;2.20;;
23543;SDS011;11950;51.230;4.012;2023-05-24T11:22:12;6.63;;;1.88;;
23543;SDS011;11950;51.230;4.012;2023-05-24T11:24:42;6.82;;;1.70;;
23543;SDS011;11950;51.230;4.012;2023-05-24T11:27:10;5.07;;;1.48;;
23543;SDS011;11950;51.230;4.012;2023-05-24T11:29:41;4.95;;;1.50;;
23543;SDS011;11950;51.230;4.012;2023-05-24T11:34:39;4.33;;;1.83;;
23543;SDS011;11950;51.230;4.012;2023-05-24T11:37:09;5.10;;;1.88;;
23543;SDS011;11950;51.230;4.012;2023-05-24T11:39:36;6.93;;;1.88;;
23543;SDS011;11950;51.230;4.012;2023-05-24T11:42:03;10.93;;;2.53;;
23543;SDS011;11950;51.230;4.012;2023-05-24T11:44:31;6.93;;;2.00;;
23543;SDS011;11950;51.230;4.012;2023-05-24T11:46:58;4.88;;;1.40;;
23543;SDS011;11950;51.230;4.012;2023-05-24T11:49:28;9.95;;;2.05;;
23543;SDS011;11950;51.230;4.012;2023-05-24T11:51:55;4.30;;;1.70;;
23543;SDS011;11950;51.230;4.012;2023-05-24T11:54:22;7.35;;;1.80;;
23543;SDS011;11950;51.230;4.012;2023-05-24T11:56:50;7.35;;;2.42;;
23543;SDS011;11950;51.230;4.012;2023-05-24T11:59:27;7.60;;;1.30;;
23543;SDS011;11950;51.230;4.012;2023-05-24T12:02:00;5.40;;;1.58;;
23543;SDS011;11950;51.230;4.012;2023-05-24T12:04:28;6.25;;;1.77;;
23543;SDS011;11950;51.230;4.012;2023-05-24T12:06:55;4.43;;;1.55;;
23543;SDS011;11950;51.230;4.012;2023-05-24T12:09:21;4.13;;;1.52;;
23543;SDS011;11950;51.230;4.012;2023-05-24T12:11:48;5.45;;;1.80;;
23543;SDS011;11950;51.230;4.012;2023-05-24T12:14:16;3.72;;;1.65;;
23543;SDS011;11950;51.230;4.012;2023-05-24T12:16:44;11.00;;;1.70;;
23543;SDS011;11950;51.230;4.012;2023-05-24T12:19:17;7.95;;;1.55;;
23543;SDS011;11950;51.230;4.012;2023-05-24T12:21:44;7.80;;;1.77;;
23543;SDS011;11950;51.230;4.012;2023-05-24T12:24:15;4.70;;;1.42;;
23543;SDS011;11950;51.230;4.012;2023-05-24T12:26:46;3.38;;;1.75;;
23543;SDS011;11950;51.230;4.012;2023-05-24T12:29:13;5.60;;;1.65;;
23543;SDS011;11950;51.230;4.012;2023-05-24T12:31:40;7.15;;;1.50;;
23543;SDS011;11950;51.230;4.012;2023-05-24T12:34:14;5.22;;;1.52;;
23543;SDS011;11950;51.230;4.012;2023-05-24T12:36:42;5.05;;;1.70;;
23543;SDS011;11950;51.230;4.012;2023-05-24T12:39:21;5.95;;;1.70;;
23543;SDS011;11950;51.230;4.012;2023-05-24T12:41:49;4.80;;;2.08;;
23543;SDS011;11950;51.230;4.012;2023-05-24T12:44:21;4.72;;;1.35;;
23543;SDS011;11950;51.230;4.012;2023-05-24T12:46:49;5.20;;;1.60;;
23543;SDS011;11950;51.230;4.012;2023-05-24T12:49:17;5.97;;;1.52;;
23543;SDS011;11950;51.230;4.012;2023-05-24T12:51:44;5.43;;;2.05;;
23543;SDS011;11950;51.230;4.012;2023-05-24T12:54:10;4.25;;;1.40;;
23543;SDS011;11950;51.230;4.012;2023-05-24T12:56:36;4.60;;;1.70;;
23543;SDS011;11950;51.230;4.012;2023-05-24T12:59:03;5.10;;;1.77;;
23543;SDS011;11950;51.230;4.012;2023-05-24T13:01:29;5.03;;;1.80;;
23543;SDS011;11950;51.230;4.012;2023-05-24T13:03:56;7.55;;;1.70;;
23543;SDS011;11950;51.230;4.012;2023-05-24T13:06:23;6.35;;;2.05;;
23543;SDS011;11950;51.230;4.012;2023-05-24T13:08:50;5.65;;;1.83;;
23543;SDS011;11950;51.230;4.012;2023-05-24T13:11:16;4.75;;;1.45;;
23543;SDS011;11950;51.230;4.012;2023-05-24T13:13:43;3.90;;;1.60;;
23543;SDS011;11950;51.230;4.012;2023-05-24T13:16:10;4.35;;;1.60;;
23543;SDS011;11950;51.230;4.012;2023-05-24T13:18:37;7.00;;;1.83;;
23543;SDS011;11950;51.230;4.012;2023-05-24T13:21:04;5.32;;;1.58;;
23543;SDS011;11950;51.230;4.012;2023-05-24T13:23:33;4.18;;;1.70;;
23543;SDS011;11950;51.230;4.012;2023-05-24T13:26:04;4.85;;;1.70;;
23543;SDS011;11950;51.230;4.012;2023-05-24T13:28:32;4.22;;;1.52;;
23543;SDS011;11950;51.230;4.012;2023-05-24T13:30:59;3.47;;;1.70;;
23543;SDS011;11950;51.230;4.012;2023-05-24T13:33:25;4.47;;;1.35;;
23543;SDS011;11950;51.230;4.012;2023-05-24T13:35:53;4.15;;;1.38;;
23543;SDS011;11950;51.230;4.012;2023-05-24T13:38:20;5.07;;;1.80;;
23543;SDS011;11950;51.230;4.012;2023-05-24T13:40:46;8.13;;;1.50;;
23543;SDS011;11950;51.230;4.012;2023-05-24T13:43:13;4.15;;;1.50;;
23543;SDS011;11950;51.230;4.012;2023-05-24T13:45:39;3.45;;;1.42;;
23543;SDS011;11950;51.230;4.012;2023-05-24T13:48:05;3.95;;;1.42;;
23543;SDS011;11950;51.230;4.012;2023-05-24T13:50:32;5.45;;;1.50;;
23543;SDS011;11950;51.230;4.012;2023-05-24T13:52:59;5.43;;;1.80;;
23543;SDS011;11950;51.230;4.012;2023-05-24T13:55:27;3.38;;;1.48;;
23543;SDS011;11950;51.230;4.012;2023-05-24T13:57:54;7.03;;;1.73;;
23543;SDS011;11950;51.230;4.012;2023-05-24T14:00:21;6.97;;;1.77;;
23543;SDS011;11950;51.230;4.012;2023-05-24T14:02:49;4.90;;;1.38;;
23543;SDS011;11950;51.230;4.012;2023-05-24T14:05:16;4.78;;;1.70;;
23543;SDS011;11950;51.230;4.012;2023-05-24T14:07:43;5.38;;;1.52;;
23543;SDS011;11950;51.230;4.012;2023-05-24T14:10:12;7.25;;;1.58;;
23543;SDS011;11950;51.230;4.012;2023-05-24T14:12:39;6.95;;;1.40;;
23543;SDS011;11950;51.230;4.012;2023-05-24T14:15:06;4.22;;;1.88;;
23543;SDS011;11950;51.230;4.012;2023-05-24T14:17:33;6.95;;;1.80;;
23543;SDS011;11950;51.230;4.012;2023-05-24T14:20:00;4.15;;;1.48;;
23543;SDS011;11950;51.230;4.012;2023-05-24T14:22:26;6.05;;;1.98;;
23543;SDS011;11950;51.230;4.012;2023-05-24T14:24:53;6.07;;;1.48;;
23543;SDS011;11950;51.230;4.012;2023-05-24T14:27:20;3.83;;;1.60;;
23543;SDS011;11950;51.230;4.012;2023-05-24T14:29:46;4.45;;;1.88;;
23543;SDS011;11950;51.230;4.012;2023-05-24T14:32:12;6.43;;;1.40;;
23543;SDS011;11950;51.230;4.012;2023-05-24T14:34:41;7.93;;;1.90;;
23543;SDS011;11950;51.230;4.012;2023-05-24T14:37:07;5.60;;;1.70;;
23543;SDS011;11950;51.230;4.012;2023-05-24T14:39:33;7.28;;;1.92;;
23543;SDS011;11950;51.230;4.012;2023-05-24T14:42:00;3.45;;;1.50;;
23543;SDS011;11950;51.230;4.012;2023-05-24T14:44:26;5.55;;;1.50;;
23543;SDS011;11950;51.230;4.012;2023-05-24T14:46:52;8.05;;;1.58;;
23543;SDS011;11950;51.230;4.012;2023-05-24T14:49:18;5.35;;;1.30;;
23543;SDS011;11950;51.230;4.012;2023-05-24T14:51:46;6.40;;;1.67;;
23543;SDS011;11950;51.230;4.012;2023-05-24T14:54:15;6.25;;;1.52;;
23543;SDS011;11950;51.230;4.012;2023-05-24T14:56:41;5.20;;;1.52;;
23543;SDS011;11950;51.230;4.012;2023-05-24T14:59:07;3.83;;;1.48;;
23543;SDS011;11950;51.230;4.012;2023-05-24T15:01:34;5.70;;;1.52;;